Time;durP1;ratioP1;P1;durP2;ratioP2;P2;SDS_P1;SDS_P2;PMS_P1;PMS_P2;Temp;Humidity;BMP_temperature;BMP_pressure;BME280_temperature;BME280_humidity;BME280_pressure;Samples;Min_cycle;Max_cycle;Signal;HPM_P1;HPM_P2
2022/11/11 00:01:11;;;;;;;13.73;12.65;;;;;;;8.30;100.00;102897.75;5207443;28;20612;-70
2022/11/11 00:03:42;;;;;;;14.50;12.48;;;;;;;8.39;100.00;102907.38;5207112;28;20058;-67
2022/11/11 00:06:14;;;;;;;12.65;11.68;;;;;;;8.30;100.00;102888.84;5207232;28;20021;-69
2022/11/11 00:08:47;;;;;;;12.07;11.15;;;;;;;8.20;100.00;102880.22;5207976;28;20270;-68
2022/11/11 00:11:17;;;;;;;14.27;13.13;;;;;;;8.42;100.00;102917.78;5208064;28;20032;-67
2022/11/11 00:13:48;;;;;;;17.88;15.23;;;;;;;8.36;100.00;102913.19;5207787;28;20033;-69
2022/11/11 00:16:19;;;;;;;16.88;13.05;;;;;;;8.31;100.00;102912.88;5207434;28;20057;-69
2022/11/11 00:27:27;;;;;;;13.68;12.55;;;;;;;8.44;100.00;102913.03;5229442;28;20036;-68
2022/11/11 00:29:58;;;;;;;13.32;12.00;;;;;;;8.48;100.00;102924.25;5211486;28;20389;-68
2022/11/11 00:32:32;;;;;;;14.40;13.18;;;;;;;8.46;100.00;102918.22;5210856;28;20037;-68
2022/11/11 00:37:52;;;;;;;13.45;12.27;;;;;;;8.50;100.00;102924.91;5229350;28;20377;-66
2022/11/11 00:40:22;;;;;;;15.38;13.27;;;;;;;8.52;100.00;102930.94;5210524;28;20065;-69
2022/11/11 00:42:53;;;;;;;15.05;13.63;;;;;;;8.54;100.00;102931.56;5213341;28;20051;-69
2022/11/11 00:45:23;;;;;;;15.05;13.55;;;;;;;8.54;100.00;102934.25;5213097;28;20048;-66
2022/11/11 00:50:58;;;;;;;12.20;11.10;;;;;;;8.55;100.00;102932.41;5230562;28;20032;-69
2022/11/11 00:53:31;;;;;;;14.15;13.13;;;;;;;8.57;100.00;102936.59;5213539;28;20148;-68
2022/11/11 00:56:02;;;;;;;16.00;14.75;;;;;;;8.58;100.00;102938.25;5213142;28;20432;-68
2022/11/11 00:58:32;;;;;;;17.33;15.52;;;;;;;8.58;100.00;102935.56;5231740;28;20029;-67
2022/11/11 01:01:03;;;;;;;15.52;14.30;;;;;;;8.58;100.00;102938.25;5213376;28;20430;-68
2022/11/11 01:03:33;;;;;;;14.75;13.23;;;;;;;8.57;100.00;102933.06;5213375;28;20033;-69
2022/11/11 01:06:04;;;;;;;13.45;12.43;;;;;;;8.57;100.00;102923.13;5212943;28;20025;-69
2022/11/11 01:08:35;;;;;;;12.63;11.52;;;;;;;8.60;100.00;102933.50;5214033;28;20114;-67
2022/11/11 01:11:16;;;;;;;12.73;11.68;;;;;;;8.59;100.00;102928.31;5213410;28;20028;-68
2022/11/11 01:13:48;;;;;;;15.63;13.35;;;;;;;8.61;100.00;102932.47;5232079;28;20315;-67
2022/11/11 01:16:21;;;;;;;15.45;13.95;;;;;;;8.61;100.00;102932.47;5213249;28;20032;-68
2022/11/11 01:18:52;;;;;;;14.82;12.93;;;;;;;8.57;100.00;102931.19;5214183;28;20067;-69
2022/11/11 01:21:24;;;;;;;17.50;14.32;;;;;;;8.52;100.00;102919.31;5212136;28;20111;-66
2022/11/11 01:23:54;;;;;;;13.38;12.07;;;;;;;8.62;100.00;102936.84;5213671;28;20553;-67
2022/11/11 01:26:27;;;;;;;12.20;11.15;;;;;;;8.62;100.00;102934.16;5231098;28;20021;-71
2022/11/11 01:28:58;;;;;;;12.80;11.63;;;;;;;8.62;100.00;102938.69;5214196;28;20029;-66
2022/11/11 01:31:28;;;;;;;13.82;12.07;;;;;;;8.36;100.00;102894.34;5213908;28;20025;-67
2022/11/11 01:33:59;;;;;;;14.10;12.77;;;;;;;8.63;100.00;102935.81;5214213;28;20503;-70
2022/11/11 01:36:29;;;;;;;14.18;12.23;;;;;;;8.41;100.00;102912.56;5214053;28;20100;-67
2022/11/11 01:39:00;;;;;;;12.68;11.55;;;;;;;8.61;100.00;102935.19;5213789;28;20098;-69
2022/11/11 01:41:34;;;;;;;15.27;12.68;;;;;;;8.61;100.00;102937.03;5213462;28;20595;-69
2022/11/11 01:44:10;;;;;;;11.90;10.90;;;;;;;8.62;100.00;102946.78;5246108;23;20099;-87
2022/11/11 01:46:54;;;;;;;13.30;12.15;;;;;;;8.61;100.00;102945.94;5253468;28;20114;-88
2022/11/11 01:49:33;;;;;;;13.80;11.02;;;;;;;8.60;100.00;102940.75;5255313;28;20036;-88
2022/11/11 01:52:29;;;;;;;16.10;11.63;;;;;;;8.59;100.00;102941.78;5253335;28;20020;-87
2022/11/11 01:55:09;;;;;;;13.40;11.57;;;;;;;8.17;100.00;102880.63;5252439;28;20029;-88
2022/11/11 01:57:49;;;;;;;11.60;10.73;;;;;;;8.20;100.00;102880.22;5253412;28;20020;-88
2022/11/11 02:00:19;;;;;;;16.83;11.10;;;;;;;8.50;100.00;102941.06;5254874;28;20539;-88
2022/11/11 02:02:54;;;;;;;16.33;12.82;;;;;;;8.38;100.00;102912.97;5254358;28;20020;-87
2022/11/11 02:05:44;;;;;;;10.60;9.80;;;;;;;8.02;100.00;102870.75;5252081;28;20020;-87
2022/11/11 02:08:32;;;;;;;12.88;11.55;;;;;;;8.39;100.00;102920.00;5253680;28;20024;-87
2022/11/11 02:11:15;;;;;;;14.07;12.82;;;;;;;8.49;100.00;102936.69;5254447;28;20025;-87
2022/11/11 02:16:35;;;;;;;11.02;10.32;;;;;;;8.38;100.00;102915.66;5254406;28;20086;-87
2022/11/11 02:19:05;;;;;;;9.68;8.98;;;;;;;7.96;100.00;102852.66;5254450;28;20020;-85
2022/11/11 02:21:44;;;;;;;11.48;10.40;;;;;;;7.97;100.00;102875.84;5253040;28;20036;-87
2022/11/11 02:24:17;;;;;;;12.55;11.25;;;;;;;8.43;100.00;102930.22;5252102;28;20025;-87
2022/11/11 02:26:49;;;;;;;10.48;9.57;;;;;;;8.33;100.00;102926.19;5254035;28;20021;-87
2022/11/11 02:29:21;;;;;;;10.68;9.98;;;;;;;8.27;100.00;102902.69;5253181;28;20119;-87
2022/11/11 02:31:51;;;;;;;11.02;9.85;;;;;;;8.40;100.00;102929.75;5254065;28;20059;-87
2022/11/11 02:34:31;;;;;;;11.13;9.98;;;;;;;8.21;100.00;102898.06;5253993;28;20029;-87
2022/11/11 02:37:05;;;;;;;13.50;12.23;;;;;;;8.37;100.00;102920.19;5253880;28;20020;-85
2022/11/11 02:39:41;;;;;;;11.75;10.63;;;;;;;8.12;100.00;102887.41;5252463;28;20036;-85
2022/11/11 02:42:15;;;;;;;13.70;11.00;;;;;;;8.36;100.00;102912.34;5253708;28;20028;-86
2022/11/11 02:44:45;;;;;;;11.88;10.63;;;;;;;8.00;100.00;102848.56;5251675;28;20031;-86
2022/11/11 02:47:16;;;;;;;11.68;10.50;;;;;;;8.07;100.00;102870.19;5253848;28;20032;-86
2022/11/11 02:49:46;;;;;;;16.20;11.68;;;;;;;8.27;100.00;102902.69;5252074;28;20024;-85
2022/11/11 02:52:16;;;;;;;13.65;11.35;;;;;;;7.93;100.00;102857.59;5252208;28;20099;-85
2022/11/11 02:54:48;;;;;;;10.45;9.45;;;;;;;8.02;100.00;102862.66;5251283;28;20028;-85
2022/11/11 02:57:18;;;;;;;11.07;9.98;;;;;;;8.33;100.00;102935.09;5252716;28;20044;-85
2022/11/11 02:59:49;;;;;;;10.38;9.52;;;;;;;8.06;100.00;102888.19;5253287;28;20047;-85
2022/11/11 03:02:19;;;;;;;10.35;9.55;;;;;;;7.86;100.00;102852.13;5253524;28;20016;-85
2022/11/11 03:04:49;;;;;;;16.20;11.77;;;;;;;8.01;100.00;102871.75;5252931;28;20029;-86
2022/11/11 03:07:20;;;;;;;13.63;12.32;;;;;;;7.87;100.00;102847.56;5251795;28;20115;-86
2022/11/11 03:09:51;;;;;;;15.20;12.27;;;;;;;8.11;100.00;102887.59;5252795;28;20028;-85
2022/11/11 03:12:21;;;;;;;11.02;10.13;;;;;;;7.92;100.00;102846.00;5252764;28;20059;-85
2022/11/11 03:14:51;;;;;;;12.98;11.88;;;;;;;7.76;100.00;102835.47;5252553;28;20027;-85
2022/11/11 03:17:40;;;;;;;19.20;12.68;;;;;;;8.27;100.00;102908.06;5252544;28;20020;-86
2022/11/11 03:23:14;;;;;;;12.60;11.05;;;;;;;8.27;100.00;102908.06;5252515;28;20028;-85
2022/11/11 03:25:47;;;;;;;14.32;12.50;;;;;;;8.27;100.00;102908.06;5250651;28;20016;-84
2022/11/11 03:28:19;;;;;;;14.13;12.75;;;;;;;8.26;100.00;102906.41;5251190;28;20025;-85
2022/11/11 03:30:50;;;;;;;11.93;10.93;;;;;;;8.22;100.00;102905.09;5252382;28;20084;-85
2022/11/11 03:33:20;;;;;;;12.00;10.82;;;;;;;8.26;100.00;102927.94;5251034;28;20101;-85
2022/11/11 03:35:50;;;;;;;17.95;11.75;;;;;;;8.26;100.00;102917.16;5251197;28;20036;-85
2022/11/11 03:38:24;;;;;;;14.10;12.88;;;;;;;8.19;100.00;102910.84;5251557;28;20043;-85
2022/11/11 03:40:56;;;;;;;15.10;11.80;;;;;;;8.21;100.00;102915.03;5252237;28;20033;-85
2022/11/11 03:43:29;;;;;;;13.85;12.70;;;;;;;8.27;100.00;102925.03;5251990;28;20064;-85
2022/11/11 03:46:03;;;;;;;12.95;12.05;;;;;;;8.10;100.00;102891.28;5251331;28;20480;-85
2022/11/11 03:48:34;;;;;;;12.40;11.60;;;;;;;8.16;100.00;102908.53;5252527;28;20029;-85
2022/11/11 03:51:05;;;;;;;13.13;12.07;;;;;;;8.02;100.00;102873.44;5251108;28;20031;-85
2022/11/11 03:53:35;;;;;;;28.00;12.30;;;;;;;8.01;100.00;102873.63;5252673;28;20021;-85
2022/11/11 03:56:06;;;;;;;13.40;12.52;;;;;;;8.10;100.00;102894.81;5250898;28;20032;-85
2022/11/11 03:58:36;;;;;;;11.75;10.70;;;;;;;7.82;100.00;102840.06;5257261;28;20448;-85
2022/11/11 04:10:21;;;;;;;16.00;14.05;;;;;;;8.19;100.00;102910.84;5256341;28;20032;-85
2022/11/11 04:16:04;;;;;;;13.60;12.57;;;;;;;8.21;100.00;102925.78;5255841;28;20082;-85
2022/11/11 04:18:14;;;;;;;13.85;12.57;;;;;;;8.19;100.00;102921.63;5256316;28;20044;-85
2022/11/11 04:23:34;;;;;;;13.05;11.90;;;;;;;7.70;100.00;102858.56;5256101;28;20081;-85
2022/11/11 04:26:04;;;;;;;14.65;13.35;;;;;;;8.00;100.00;102891.63;5254722;28;20024;-86
2022/11/11 04:31:23;;;;;;;12.63;11.63;;;;;;;8.10;100.00;102905.59;5256028;28;20090;-85
2022/11/11 04:33:54;;;;;;;12.32;11.13;;;;;;;7.75;100.00;102852.63;5254576;28;20029;-85
2022/11/11 04:36:24;;;;;;;13.68;12.18;;;;;;;8.18;100.00;102907.34;5255744;28;20055;-85
2022/11/11 04:41:43;;;;;;;15.93;14.25;;;;;;;8.01;100.00;102887.06;5256076;28;20025;-85
2022/11/11 04:47:03;;;;;;;16.33;12.52;;;;;;;8.11;100.00;102901.88;5255032;28;20103;-85
2022/11/11 04:49:33;;;;;;;16.30;11.75;;;;;;;7.70;100.00;102838.91;5254153;28;20020;-86
2022/11/11 04:57:44;;;;;;;12.82;11.73;;;;;;;8.04;100.00;102908.22;5259184;28;20119;-86
2022/11/11 05:00:17;;;;;;;12.27;11.15;;;;;;;8.00;100.00;102910.44;5257936;28;20119;-85
2022/11/11 05:11:14;;;;;;;13.45;12.25;;;;;;;7.74;100.00;102904.75;5255452;28;20119;-86
2022/11/11 05:22:28;;;;;;;14.95;13.75;;;;;;;7.75;100.00;102925.25;5255505;28;20056;-86
2022/11/11 05:27:48;;;;;;;16.48;15.00;;;;;;;7.75;100.00;102923.38;5254009;28;20038;-85
2022/11/11 05:30:20;;;;;;;15.10;13.70;;;;;;;7.60;100.00;102919.84;5253894;28;20025;-86
2022/11/11 05:32:51;;;;;;;14.68;13.57;;;;;;;7.75;100.00;102936.84;5253583;28;20381;-86
2022/11/11 05:35:22;;;;;;;12.63;11.52;;;;;;;7.34;100.00;102873.78;5254750;28;20021;-86
2022/11/11 05:40:41;;;;;;;13.18;12.15;;;;;;;7.39;100.00;102882.97;5254985;28;20051;-86
2022/11/11 05:43:11;;;;;;;11.60;10.70;;;;;;;7.52;100.00;102893.06;5250548;28;20033;-86
2022/11/11 05:45:42;;;;;;;12.70;11.75;;;;;;;7.24;100.00;102881.28;5273923;28;20020;-85
2022/11/11 05:48:12;;;;;;;13.88;12.77;;;;;;;7.66;100.00;102943.31;5257301;28;20024;-86
2022/11/11 05:50:42;;;;;;;11.18;10.25;;;;;;;7.21;100.00;102895.94;5254234;28;20031;-85
2022/11/11 05:53:13;;;;;;;11.57;10.50;;;;;;;7.19;100.00;102924.84;5255442;28;20027;-86
2022/11/11 05:55:43;;;;;;;12.80;11.80;;;;;;;6.76;100.00;102868.16;5256355;28;20074;-86
2022/11/11 05:58:16;;;;;;;13.68;11.85;;;;;;;6.52;100.00;102846.06;5256178;28;20024;-86
2022/11/11 06:00:46;;;;;;;11.55;10.85;;;;;;;6.53;100.00;102877.25;5255639;28;20028;-85
2022/11/11 06:03:17;;;;;;;11.95;10.93;;;;;;;6.57;100.00;102886.63;5254393;28;20023;-85
2022/11/11 06:05:47;;;;;;;11.90;10.85;;;;;;;6.51;100.00;102900.75;5254241;28;20385;-86
2022/11/11 06:08:17;;;;;;;13.75;12.50;;;;;;;5.86;100.00;102810.78;5253732;28;20095;-86
2022/11/11 06:10:50;;;;;;;13.32;12.35;;;;;;;6.21;100.00;102881.00;5252989;28;20410;-86
2022/11/11 06:13:20;;;;;;;16.15;14.00;;;;;;;6.07;100.00;102869.19;5253742;28;20024;-86
2022/11/11 06:15:50;;;;;;;14.90;13.43;;;;;;;5.90;100.00;102862.25;5252953;28;20024;-87
2022/11/11 06:18:21;;;;;;;15.30;13.98;;;;;;;6.42;100.00;102949.13;5254055;28;20036;-84
2022/11/11 06:20:56;;;;;;;48.53;45.28;;;;;;;6.22;100.00;102936.34;5250277;28;20047;-87
2022/11/11 06:23:27;;;;;;;14.98;12.45;;;;;;;6.19;100.00;102936.69;5251507;28;20119;-87
2022/11/11 06:26:13;;;;;;;17.02;15.52;;;;;;;5.89;100.00;102898.97;5251967;28;20047;-87
2022/11/11 06:28:48;;;;;;;17.17;15.82;;;;;;;6.24;100.00;102958.47;5252022;28;20024;-87
2022/11/11 06:31:22;;;;;;;15.60;14.43;;;;;;;6.13;100.00;102948.94;5252452;28;20017;-86
2022/11/11 06:33:53;;;;;;;18.92;17.23;;;;;;;6.07;100.00;102950.47;5253442;28;20042;-86
2022/11/11 06:36:23;;;;;;;16.17;15.00;;;;;;;5.94;100.00;102944.88;5253713;28;20041;-86
2022/11/11 06:38:54;;;;;;;17.92;16.30;;;;;;;5.56;100.00;102884.00;5254135;28;20024;-87
2022/11/11 06:41:24;;;;;;;16.33;14.55;;;;;;;5.81;100.00;102936.50;5253456;28;20024;-86
2022/11/11 06:43:55;;;;;;;15.70;14.18;;;;;;;6.07;100.00;102977.31;5253953;28;20032;-87
2022/11/11 06:46:25;;;;;;;18.55;17.05;;;;;;;5.43;100.00;102893.44;5253683;28;20046;-86
2022/11/11 06:48:56;;;;;;;18.92;17.13;;;;;;;6.00;100.00;103007.69;5254777;28;20021;-87
2022/11/11 06:51:26;;;;;;;16.83;15.25;;;;;;;5.75;100.00;102958.66;5253908;28;20119;-86
2022/11/11 06:53:56;;;;;;;26.65;17.08;;;;;;;5.73;100.00;102956.16;5254971;28;20086;-87
2022/11/11 06:56:27;;;;;;;17.30;16.02;;;;;;;5.68;100.00;102950.47;5254417;28;20028;-86
2022/11/11 06:58:57;;;;;;;17.58;16.13;;;;;;;5.82;100.00;102989.09;5254021;28;20039;-87
2022/11/11 07:01:28;;;;;;;18.30;16.52;;;;;;;5.46;100.00;102939.66;5253671;28;20131;-87
2022/11/11 07:03:58;;;;;;;21.58;17.92;;;;;;;5.30;100.00;102925.25;5254357;28;20107;-86
2022/11/11 07:06:28;;;;;;;15.65;14.27;;;;;;;5.66;100.00;102981.97;5254332;28;20101;-86
2022/11/11 07:08:59;;;;;;;24.05;15.65;;;;;;;5.57;100.00;102974.09;5252924;28;20116;-86
2022/11/11 07:11:29;;;;;;;19.27;17.27;;;;;;;5.42;100.00;102931.09;5254451;28;20062;-86
2022/11/11 07:13:59;;;;;;;17.00;15.80;;;;;;;5.57;100.00;102960.69;5254872;28;20510;-87
2022/11/11 07:16:30;;;;;;;18.13;16.52;;;;;;;5.65;100.00;102969.56;5254675;28;20536;-87
2022/11/11 07:19:00;;;;;;;18.20;16.70;;;;;;;5.67;100.00;102966.72;5255704;28;20025;-86
2022/11/11 07:21:30;;;;;;;20.10;18.30;;;;;;;5.01;100.00;102871.41;5255114;28;20079;-86
2022/11/11 07:24:01;;;;;;;19.42;17.52;;;;;;;5.65;100.00;102955.31;5256745;28;20020;-86
2022/11/11 07:26:31;;;;;;;19.38;17.35;;;;;;;5.72;100.00;102967.03;5253053;28;20086;-86
2022/11/11 07:29:02;;;;;;;18.38;14.98;;;;;;;5.40;100.00;102942.00;5254866;28;20032;-86
2022/11/11 07:31:32;;;;;;;18.30;16.85;;;;;;;5.67;100.00;102985.47;5253419;28;20215;-86
2022/11/11 07:34:02;;;;;;;16.00;14.60;;;;;;;5.55;100.00;102963.53;5254656;28;20375;-87
2022/11/11 07:36:33;;;;;;;17.95;16.55;;;;;;;5.93;100.00;103034.38;5253838;28;20694;-87
2022/11/11 07:39:03;;;;;;;19.23;16.80;;;;;;;5.87;100.00;103016.25;5255523;28;20050;-87
2022/11/11 07:41:34;;;;;;;17.88;16.25;;;;;;;5.46;100.00;102943.16;5253392;28;20035;-86
2022/11/11 07:44:04;;;;;;;17.65;15.82;;;;;;;5.81;100.00;102994.63;5277667;22;20051;-81
2022/11/11 07:46:35;;;;;;;15.77;14.60;;;;;;;5.92;100.00;103013.91;5237178;28;20486;-81
2022/11/11 07:49:05;;;;;;;14.82;13.45;;;;;;;5.93;100.00;103014.75;5235776;28;20043;-80
2022/11/11 07:51:35;;;;;;;19.40;17.52;;;;;;;5.99;100.00;103022.13;5230859;28;20032;-82
2022/11/11 07:54:06;;;;;;;20.90;16.90;;;;;;;6.06;100.00;103040.00;5234287;28;20104;-83
2022/11/11 07:56:36;;;;;;;17.25;15.70;;;;;;;6.10;100.00;103037.81;5234199;28;20025;-81
2022/11/11 07:59:07;;;;;;;19.80;15.77;;;;;;;5.98;100.00;103009.72;5230041;28;20025;-82
2022/11/11 08:01:37;;;;;;;23.23;17.52;;;;;;;6.14;100.00;103039.16;5233202;28;20053;-80
2022/11/11 08:04:07;;;;;;;17.17;15.48;;;;;;;6.12;100.00;103038.47;5214803;28;20025;-81
2022/11/11 08:06:38;;;;;;;17.50;15.90;;;;;;;6.16;100.00;103041.66;5233365;28;20073;-81
2022/11/11 08:09:08;;;;;;;17.75;16.10;;;;;;;6.18;100.00;103026.22;5234386;28;20025;-81
2022/11/11 08:14:28;;;;;;;14.88;13.48;;;;;;;6.19;100.00;103022.53;5232318;28;20109;-80
2022/11/11 08:16:58;;;;;;;15.02;13.80;;;;;;;6.09;100.00;103002.09;5231212;28;20025;-84
2022/11/11 08:19:28;;;;;;;15.93;14.73;;;;;;;6.25;100.00;103027.22;5231450;28;20036;-83
2022/11/11 08:21:59;;;;;;;15.68;14.55;;;;;;;6.12;100.00;103000.09;5231594;28;20032;-85
2022/11/11 08:24:29;;;;;;;17.52;15.82;;;;;;;6.42;100.00;103039.53;5212598;28;20025;-81
2022/11/11 08:27:00;;;;;;;16.55;15.00;;;;;;;6.49;100.00;103043.19;5231773;28;20063;-81
2022/11/11 08:29:30;;;;;;;16.08;14.75;;;;;;;6.39;100.00;103032.66;5232552;28;20025;-81
2022/11/11 08:32:01;;;;;;;15.55;14.27;;;;;;;6.06;100.00;102972.94;5213304;28;20367;-84
2022/11/11 08:34:31;;;;;;;16.55;14.77;;;;;;;6.58;100.00;103031.41;5231493;28;20029;-82
2022/11/11 08:37:01;;;;;;;14.65;13.35;;;;;;;6.67;100.00;103045.59;5231788;28;20074;-81
2022/11/11 08:39:32;;;;;;;30.13;17.23;;;;;;;6.70;100.00;103043.41;5237831;28;20120;-86
2022/11/11 08:42:02;;;;;;;13.85;12.55;;;;;;;6.18;100.00;102951.94;5223957;28;20089;-83
2022/11/11 08:44:33;;;;;;;14.75;13.38;;;;;;;5.91;100.00;102904.16;5225994;28;20044;-80
2022/11/11 08:47:03;;;;;;;15.77;13.63;;;;;;;6.79;100.00;103063.00;5218937;28;20554;-82
2022/11/11 08:49:34;;;;;;;17.20;14.73;;;;;;;6.26;100.00;102962.66;5236991;28;20092;-83
2022/11/11 08:52:04;;;;;;;20.48;14.63;;;;;;;6.17;100.00;102920.75;5219532;28;20126;-82
2022/11/11 08:54:34;;;;;;;15.75;14.55;;;;;;;6.87;100.00;103027.19;5239607;28;20055;-82
2022/11/11 08:57:05;;;;;;;14.35;13.23;;;;;;;7.08;100.00;103062.31;5239174;28;20029;-80
2022/11/11 08:59:35;;;;;;;13.73;12.75;;;;;;;7.04;100.00;103047.56;5221535;28;20029;-83
2022/11/11 09:02:09;;;;;;;18.15;15.52;;;;;;;7.26;100.00;103065.50;5239169;28;20131;-83
2022/11/11 09:04:40;;;;;;;14.98;13.75;;;;;;;7.07;100.00;103007.72;5220953;28;20025;-84
2022/11/11 09:07:11;;;;;;;14.52;13.13;;;;;;;7.58;100.00;103067.09;5221692;28;20081;-81
2022/11/11 09:09:41;;;;;;;14.02;12.32;;;;;;;7.47;100.00;103034.44;5240139;28;20028;-83
2022/11/11 09:12:12;;;;;;;16.17;14.75;;;;;;;7.78;100.00;103044.06;5238737;28;20367;-81
2022/11/11 09:14:42;;;;;;;17.90;15.43;;;;;;;7.91;100.00;103048.78;5240841;28;20071;-81
2022/11/11 09:17:12;;;;;;;13.30;12.02;;;;;;;7.89;100.00;103039.22;5241295;28;20033;-80
2022/11/11 09:19:43;;;;;;;15.30;13.90;;;;;;;7.79;100.00;102996.47;5237075;28;20032;-81
2022/11/11 09:22:13;;;;;;;12.25;11.27;;;;;;;7.99;100.00;103008.34;5236978;28;20080;-81
2022/11/11 09:24:44;;;;;;;12.60;11.48;;;;;;;8.11;100.00;103022.13;5236072;28;20497;-81
2022/11/11 09:27:14;;;;;;;18.45;13.18;;;;;;;8.53;100.00;103061.84;5236108;28;20025;-82
2022/11/11 09:29:44;;;;;;;11.32;10.43;;;;;;;8.28;100.00;103018.22;5236155;28;20470;-82
2022/11/11 09:32:15;;;;;;;12.77;11.63;;;;;;;8.73;100.00;103071.00;5217782;28;20133;-81
2022/11/11 09:34:45;;;;;;;12.57;11.38;;;;;;;8.76;100.00;103064.41;5236501;28;20044;-81
2022/11/11 09:37:15;;;;;;;13.35;11.95;;;;;;;8.85;100.00;103073.22;5243437;28;20041;-82
2022/11/11 09:39:46;;;;;;;10.40;9.57;;;;;;;8.55;100.00;103011.34;5245453;28;20091;-81
2022/11/11 09:42:39;;;;;;;12.57;10.10;;;;;;;8.96;100.00;103070.00;5241959;28;20025;-80
2022/11/11 09:45:27;;;;;;;10.00;9.07;;;;;;;8.93;100.00;103052.38;5237194;28;20566;-82
2022/11/11 09:48:09;;;;;;;10.77;9.77;;;;;;;9.05;100.00;103074.25;5218087;28;20035;-83
2022/11/11 09:50:42;;;;;;;13.38;9.02;;;;;;;8.44;100.00;102974.13;5236185;28;20036;-82
2022/11/11 09:53:18;;;;;;;11.65;9.48;;;;;;;9.05;100.00;103075.06;5218105;28;20060;-82
2022/11/11 09:55:54;;;;;;;10.55;9.23;;;;;;;9.09;100.00;103065.59;5236507;28;20028;-82
2022/11/11 09:58:32;;;;;;;10.38;9.60;;;;;;;9.14;100.00;103082.03;5218886;28;20025;-82
2022/11/11 10:01:11;;;;;;;9.98;9.18;;;;;;;9.14;100.00;103079.31;5236539;28;20037;-81
2022/11/11 10:03:47;;;;;;;10.60;9.63;;;;;;;9.11;100.00;103058.16;5236804;28;20368;-80
2022/11/11 10:06:21;;;;;;;11.15;9.98;;;;;;;8.96;100.00;103037.66;5219815;28;20024;-80
2022/11/11 10:09:12;;;;;;;9.55;8.68;;;;;;;9.22;100.00;103077.53;5218956;28;20027;-80
2022/11/11 10:12:00;;;;;;;10.93;10.07;;;;;;;9.25;100.00;103064.47;5237060;28;20401;-82
2022/11/11 10:14:41;;;;;;;11.60;8.25;;;;;;;9.24;100.00;103068.19;5236270;28;20020;-80
2022/11/11 10:17:34;;;;;;;9.70;9.00;;;;;;;9.43;100.00;103074.81;5218774;28;20081;-82
2022/11/11 10:20:17;;;;;;;10.00;9.30;;;;;;;9.54;100.00;103073.44;5235967;28;20033;-80
2022/11/11 10:22:53;;;;;;;10.38;9.60;;;;;;;9.53;100.00;103055.63;5234313;28;20024;-80
2022/11/11 10:25:25;;;;;;;14.00;9.45;;;;;;;8.59;100.00;102877.13;5235559;28;20024;-81
2022/11/11 10:27:58;;;;;;;9.13;8.27;;;;;;;9.79;100.00;103058.50;5234190;28;20077;-80
2022/11/11 10:30:31;;;;;;;10.57;9.63;;;;;;;9.67;100.00;103031.22;5246918;28;20029;-82
2022/11/11 10:33:39;;;;;;;10.73;9.95;;;;;;;9.97;100.00;103052.59;5237695;28;20088;-82
2022/11/11 10:36:16;;;;;;;10.40;7.53;;;;;;;10.09;100.00;103062.66;5229643;28;20070;-81
2022/11/11 10:39:15;;;;;;;8.27;7.72;;;;;;;10.20;100.00;103071.22;5254281;28;20028;-81
2022/11/11 10:41:49;;;;;;;11.20;7.43;;;;;;;10.21;100.00;103081.84;5251826;28;20120;-82
2022/11/11 10:44:24;;;;;;;10.77;8.15;;;;;;;10.18;100.00;103081.38;5236232;28;20033;-82
2022/11/11 10:47:00;;;;;;;8.93;8.18;;;;;;;10.28;100.00;103071.91;5254901;28;20020;-81
2022/11/11 10:49:34;;;;;;;11.20;8.43;;;;;;;10.34;100.00;103059.47;5253682;28;20082;-82
2022/11/11 10:52:37;;;;;;;8.77;8.07;;;;;;;10.64;100.00;103071.66;5235765;28;20021;-82
2022/11/11 10:55:17;;;;;;;8.50;7.47;;;;;;;10.75;100.00;103092.69;5238017;28;20120;-81
2022/11/11 10:58:06;;;;;;;9.57;8.68;;;;;;;10.82;100.00;103069.22;5253520;28;20051;-82
2022/11/11 11:00:39;;;;;;;5.50;5.07;;;;;;;10.94;100.00;103060.53;5254471;28;20111;-81
2022/11/11 11:03:22;;;;;;;7.10;6.50;;;;;;;11.05;100.00;103057.19;5256663;28;20051;-81
2022/11/11 11:06:09;;;;;;;6.22;5.93;;;;;;;10.82;100.00;102996.25;5238057;28;20133;-83
2022/11/11 11:08:44;;;;;;;6.55;6.13;;;;;;;11.25;100.00;103052.66;5256882;28;20028;-80
2022/11/11 11:11:36;;;;;;;6.30;5.90;;;;;;;11.35;100.00;103046.81;5256399;28;20077;-80
2022/11/11 11:14:27;;;;;;;8.38;7.55;;;;;;;11.12;100.00;103001.25;5256507;28;20028;-84
2022/11/11 11:17:06;;;;;;;7.97;7.20;;;;;;;11.42;100.00;103043.09;5255844;28;20020;-83
2022/11/11 11:19:36;;;;;;;8.57;6.87;;;;;;;11.58;100.00;103044.53;5257731;28;20158;-80
2022/11/11 11:22:07;;;;;;;5.75;5.30;;;;;;;11.63;100.00;103052.03;5236337;28;20414;-79
2022/11/11 11:24:37;;;;;;;9.80;5.82;;;;;;;11.72;100.00;103048.06;5252949;28;20035;-80
2022/11/11 11:27:08;;;;;;;6.38;5.88;;;;;;;11.75;100.00;103042.25;5253215;28;20016;-79
2022/11/11 11:29:41;;;;;;;5.95;5.55;;;;;;;11.75;100.00;103051.19;5254803;28;20036;-81
2022/11/11 11:32:20;;;;;;;4.72;4.43;;;;;;;11.79;100.00;103040.81;5255953;28;20032;-81
2022/11/11 11:34:53;;;;;;;5.10;4.80;;;;;;;11.46;100.00;102982.13;5255462;28;20024;-82
2022/11/11 11:37:25;;;;;;;4.78;4.50;;;;;;;11.78;100.00;103031.84;5236523;28;20305;-81
2022/11/11 11:40:06;;;;;;;5.60;5.18;;;;;;;11.83;100.00;103050.19;5255117;28;20446;-80
2022/11/11 11:42:38;;;;;;;5.60;5.13;;;;;;;11.76;100.00;103030.38;5255454;28;20346;-82
2022/11/11 11:45:25;;;;;;;4.88;4.57;;;;;;;11.82;100.00;103040.38;5236824;28;20021;-82
2022/11/11 11:48:12;;;;;;;5.30;4.15;;;;;;;11.93;100.00;103042.44;5255315;28;20020;-81
2022/11/11 11:50:50;;;;;;;4.57;4.30;;;;;;;11.65;100.00;102976.88;5254822;28;20047;-80
2022/11/11 11:53:55;;;;;;;3.70;3.50;;;;;;;11.98;100.00;103039.94;5255513;28;20027;-82
2022/11/11 11:56:38;;;;;;;3.92;3.63;;;;;;;12.03;100.00;103034.72;5254540;28;20125;-82
2022/11/11 11:59:16;;;;;;;5.28;4.82;;;;;;;12.11;100.00;103030.94;5256335;28;20044;-80
2022/11/11 12:02:43;;;;;;;4.57;4.28;;;;;;;12.14;100.00;103025.91;5238219;28;20081;-81
2022/11/11 12:05:41;;;;;;;4.25;3.95;;;;;;;12.27;100.00;103035.03;5237340;28;20032;-80
2022/11/11 12:08:32;;;;;;;4.38;4.07;;;;;;;12.35;100.00;103034.81;5255718;28;20025;-81
2022/11/11 12:11:11;;;;;;;4.90;4.43;;;;;;;12.45;100.00;103033.28;5255071;28;20067;-81
2022/11/11 12:13:48;;;;;;;4.20;3.90;;;;;;;12.49;100.00;103028.28;5255078;28;20025;-81
2022/11/11 12:16:34;;;;;;;3.22;3.10;;;;;;;12.51;100.00;103029.72;5256232;28;20695;-83
2022/11/11 12:19:25;;;;;;;3.92;3.72;;;;;;;12.30;100.00;103010.22;5242465;28;20033;-83
2022/11/11 12:22:34;;;;;;;3.13;2.92;;;;;;;12.44;100.00;103019.94;5260854;28;20024;-83
2022/11/11 12:25:12;;;;;;;2.72;2.60;;;;;;;12.48;100.00;103021.19;5260297;28;20024;-81
2022/11/11 12:27:43;;;;;;;3.15;2.95;;;;;;;12.51;100.00;103023.47;5261336;28;20029;-81
2022/11/11 12:30:18;;;;;;;3.10;2.90;;;;;;;12.51;100.00;103018.03;5260122;28;20028;-83
2022/11/11 12:33:42;;;;;;;3.42;3.13;;;;;;;12.50;100.00;103013.69;5260488;28;20029;-81
2022/11/11 12:36:28;;;;;;;3.20;3.00;;;;;;;12.47;100.00;103019.53;5244203;28;20048;-82
2022/11/11 12:39:23;;;;;;;4.40;3.33;;;;;;;12.51;100.00;103018.03;5261028;28;20063;-81
2022/11/11 12:42:32;;;;;;;2.72;2.53;;;;;;;12.52;100.00;102990.72;5260873;28;20032;-83
2022/11/11 12:45:16;;;;;;;3.00;2.90;;;;;;;12.71;100.00;103005.22;5175394;28;20030;-82
2022/11/11 12:47:55;;;;;;;2.50;2.40;;;;;;;12.77;100.00;102998.09;5238223;28;20540;-82
2022/11/11 12:50:34;;;;;;;3.50;3.33;;;;;;;12.82;100.00;103004.53;5260085;28;20112;-80
2022/11/11 12:53:11;;;;;;;4.55;3.40;;;;;;;12.92;100.00;103003.22;5261306;28;20063;-81
2022/11/11 12:55:59;;;;;;;2.67;2.47;;;;;;;12.98;100.00;103005.06;5260520;28;20371;-82
2022/11/11 12:58:46;;;;;;;2.58;2.47;;;;;;;12.97;100.00;102992.56;5259856;28;20028;-81
2022/11/11 13:01:22;;;;;;;2.63;2.42;;;;;;;13.03;100.00;103005.19;5249236;28;20379;-82